createdAt,value
2019-05-14T00:02:21.872Z,7.60
2019-05-14T00:04:51.745Z,7.50
2019-05-14T00:07:22.317Z,7.50
2019-05-14T00:09:52.422Z,7.50
2019-05-14T00:12:22.470Z,7.40
2019-05-14T00:14:52.072Z,7.40
2019-05-14T00:17:21.920Z,7.40
2019-05-14T00:20:05.535Z,7.30
2019-05-14T00:22:23.069Z,7.30
2019-05-14T00:24:52.689Z,7.30
2019-05-14T00:27:22.262Z,7.30
2019-05-14T00:29:52.033Z,7.30
2019-05-14T00:32:21.849Z,7.30
2019-05-14T00:34:51.811Z,7.30
2019-05-14T00:37:21.873Z,7.20
2019-05-14T00:39:52.014Z,7.20
2019-05-14T00:42:21.956Z,7.10
2019-05-14T00:44:57.748Z,7.10
2019-05-14T00:47:23.172Z,7.00
2019-05-14T00:49:52.797Z,7.00
2019-05-14T00:52:22.417Z,7.00
2019-05-14T00:54:52.443Z,6.90
2019-05-14T00:57:22.233Z,6.90
2019-05-14T00:59:52.253Z,6.90
2019-05-14T01:02:22.028Z,6.90
2019-05-14T01:04:51.945Z,6.90
2019-05-14T01:07:21.665Z,6.90
2019-05-14T01:09:52.374Z,6.90
2019-05-14T01:12:22.206Z,6.90
2019-05-14T01:15:10.811Z,6.90
2019-05-14T01:17:38.780Z,6.90
2019-05-14T01:20:09.064Z,6.80
2019-05-14T01:22:38.952Z,6.70
2019-05-14T01:25:09.204Z,6.60
2019-05-14T01:27:41.116Z,6.60
2019-05-14T01:30:12.426Z,6.60
2019-05-14T01:32:42.272Z,6.50
2019-05-14T01:35:12.544Z,6.50
2019-05-14T01:37:42.076Z,6.50
2019-05-14T01:40:12.082Z,6.50
2019-05-14T01:42:41.863Z,6.50
2019-05-14T01:45:24.436Z,6.50
2019-05-14T01:47:42.831Z,6.50
2019-05-14T01:50:12.456Z,6.50
2019-05-14T01:52:42.076Z,6.50
2019-05-14T01:55:11.881Z,6.50
2019-05-14T01:57:42.432Z,6.50
2019-05-14T02:00:14.152Z,6.40
2019-05-14T02:02:44.024Z,6.40
2019-05-14T02:05:13.820Z,6.40
2019-05-14T02:07:43.352Z,6.30
2019-05-14T02:10:13.260Z,6.30
2019-05-14T02:12:42.886Z,6.30
2019-05-14T02:15:12.980Z,6.20
2019-05-14T02:17:43.049Z,6.20
2019-05-14T02:20:13.152Z,6.20
2019-05-14T02:22:42.700Z,6.10
2019-05-14T02:25:12.736Z,6.10
2019-05-14T02:27:42.370Z,6.10
2019-05-14T02:30:12.458Z,6.10
2019-05-14T02:32:42.044Z,6.10
2019-05-14T02:35:11.740Z,6.10
2019-05-14T02:37:41.293Z,6.20
2019-05-14T02:40:11.407Z,6.20
2019-05-14T02:42:40.958Z,6.10
2019-05-14T02:45:10.783Z,6.10
2019-05-14T02:47:40.426Z,6.10
2019-05-14T02:50:10.539Z,6.10
2019-05-14T02:52:40.615Z,6.10
2019-05-14T02:55:10.715Z,6.00
2019-05-14T02:57:40.344Z,6.00
2019-05-14T03:00:10.533Z,6.00
2019-05-14T03:02:40.717Z,6.00
2019-05-14T03:05:10.601Z,5.90
2019-05-14T03:07:40.541Z,5.80
2019-05-14T03:10:10.375Z,5.80
2019-05-14T03:12:40.153Z,5.70
2019-05-14T03:15:11.453Z,5.70
2019-05-14T03:17:41.453Z,5.70
2019-05-14T03:20:11.289Z,5.60
2019-05-14T03:22:53.411Z,5.50
2019-05-14T03:25:12.778Z,5.40
2019-05-14T03:27:42.401Z,5.40
2019-05-14T03:30:13.575Z,5.50
2019-05-14T03:32:43.774Z,5.50
2019-05-14T03:35:14.509Z,5.50
2019-05-14T03:37:44.853Z,5.50
2019-05-14T03:40:14.574Z,5.50
2019-05-14T03:42:44.209Z,5.50
2019-05-14T03:45:14.266Z,5.50
2019-05-14T03:47:43.922Z,5.50
2019-05-14T03:50:13.994Z,5.50
2019-05-14T03:52:44.009Z,5.50
2019-05-14T03:55:14.457Z,5.50
2019-05-14T03:57:44.141Z,5.50
2019-05-14T04:00:14.363Z,5.40
2019-05-14T04:02:44.301Z,5.40
2019-05-14T04:05:18.639Z,5.40
2019-05-14T04:07:50.197Z,5.40
2019-05-14T04:10:19.428Z,5.40
2019-05-14T04:12:52.345Z,5.40
2019-05-14T04:15:25.682Z,5.40
2019-05-14T04:17:56.137Z,5.40
2019-05-14T04:20:29.780Z,5.40
2019-05-14T04:23:02.947Z,5.40
2019-05-14T04:25:33.007Z,5.40
2019-05-14T04:28:04.417Z,5.50
2019-05-14T04:30:40.053Z,5.50
2019-05-14T04:33:10.791Z,5.50
2019-05-14T04:35:40.585Z,5.50
2019-05-14T04:38:10.511Z,5.50
2019-05-14T04:40:40.449Z,5.50
2019-05-14T04:43:10.779Z,5.50
2019-05-14T04:45:40.321Z,5.50
2019-05-14T04:48:27.208Z,5.60
2019-05-14T04:50:42.247Z,5.60
2019-05-14T04:53:12.194Z,5.60
2019-05-14T04:55:41.829Z,5.60
2019-05-14T04:58:11.443Z,5.70
2019-05-14T05:00:41.099Z,5.60
2019-05-14T05:03:12.605Z,5.60
2019-05-14T05:05:42.219Z,5.70
2019-05-14T05:08:14.462Z,5.70
2019-05-14T05:10:43.285Z,5.70
2019-05-14T05:13:12.836Z,5.70
2019-05-14T05:15:42.703Z,5.80
2019-05-14T05:18:12.506Z,5.80
2019-05-14T05:20:42.280Z,5.90
2019-05-14T05:23:12.121Z,5.90
2019-05-14T05:25:41.673Z,5.90
2019-05-14T05:28:11.213Z,5.80
2019-05-14T05:30:40.753Z,5.80
2019-05-14T05:33:10.650Z,5.70
2019-05-14T05:35:42.427Z,5.70
2019-05-14T05:38:12.145Z,5.70
2019-05-14T05:40:42.030Z,5.70
2019-05-14T05:43:12.149Z,5.70
2019-05-14T05:45:41.980Z,5.80
2019-05-14T05:48:11.505Z,5.80
2019-05-14T05:50:41.045Z,5.90
2019-05-14T05:53:10.681Z,5.90
2019-05-14T05:55:40.592Z,6.00
2019-05-14T05:58:10.524Z,6.10
2019-05-14T06:00:40.622Z,6.20
2019-05-14T06:03:29.956Z,6.30
2019-05-14T06:06:15.669Z,6.40
2019-05-14T06:08:58.376Z,6.50
2019-05-14T06:11:29.092Z,6.60
2019-05-14T06:13:59.056Z,6.70
2019-05-14T06:16:29.553Z,6.80
2019-05-14T06:19:01.733Z,6.80
2019-05-14T06:21:32.208Z,6.90
2019-05-14T06:24:03.028Z,7.00
2019-05-14T06:26:32.740Z,7.10
2019-05-14T06:29:02.424Z,7.20
2019-05-14T06:31:41.602Z,7.30
2019-05-14T06:34:11.457Z,7.40
2019-05-14T06:36:41.573Z,7.60
2019-05-14T06:39:11.785Z,7.70
2019-05-14T06:41:43.033Z,7.80
2019-05-14T06:44:13.048Z,7.90
2019-05-14T06:46:42.680Z,8.00
2019-05-14T06:49:12.476Z,8.10
2019-05-14T06:51:42.389Z,8.20
2019-05-14T06:54:12.189Z,8.30
2019-05-14T06:56:41.744Z,8.40
2019-05-14T06:59:11.289Z,8.50
2019-05-14T07:01:40.854Z,8.60
2019-05-14T07:04:10.400Z,8.70
2019-05-14T07:06:40.001Z,8.80
2019-05-14T07:09:13.598Z,8.90
2019-05-14T07:11:43.242Z,9.00
2019-05-14T07:14:30.520Z,9.10
2019-05-14T07:17:18.599Z,9.20
2019-05-14T07:20:00.110Z,9.30
2019-05-14T07:22:44.289Z,9.40
2019-05-14T07:25:14.377Z,9.50
2019-05-14T07:28:03.289Z,9.60
2019-05-14T07:30:32.894Z,9.70
2019-05-14T07:33:02.763Z,9.90
2019-05-14T07:35:32.616Z,10.00
2019-05-14T07:38:02.541Z,10.00
2019-05-14T07:40:32.461Z,10.10
2019-05-14T07:43:02.569Z,10.20
2019-05-14T07:45:33.449Z,10.30
2019-05-14T07:48:03.376Z,10.30
2019-05-14T07:50:33.069Z,10.40
2019-05-14T07:53:03.197Z,10.40
2019-05-14T07:55:32.936Z,10.50
2019-05-14T07:58:02.565Z,10.60
2019-05-14T08:00:32.204Z,10.60
2019-05-14T08:03:16.129Z,10.70
2019-05-14T08:05:48.211Z,10.80
2019-05-14T08:08:18.704Z,10.90
2019-05-14T08:10:48.911Z,11.00
2019-05-14T08:13:28.214Z,11.00
2019-05-14T08:15:58.338Z,11.10
2019-05-14T08:18:29.214Z,11.10
2019-05-14T08:20:59.449Z,11.20
2019-05-14T08:23:29.445Z,11.30
2019-05-14T08:26:03.622Z,11.40
2019-05-14T08:28:30.328Z,11.40
2019-05-14T08:31:00.208Z,11.50
2019-05-14T08:33:29.769Z,11.50
2019-05-14T08:35:59.628Z,11.60
2019-05-14T08:38:29.177Z,11.60
2019-05-14T08:40:59.082Z,11.70
2019-05-14T08:43:29.400Z,11.70
2019-05-14T08:45:59.092Z,11.80
2019-05-14T08:48:31.918Z,11.80
2019-05-14T08:51:01.487Z,12.00
2019-05-14T08:53:31.278Z,12.10
2019-05-14T08:56:01.398Z,12.20
2019-05-14T08:58:31.306Z,12.30
2019-05-14T09:01:00.861Z,12.50
2019-05-14T09:03:30.416Z,12.60
2019-05-14T09:06:00.803Z,12.70
2019-05-14T09:08:31.028Z,12.80
2019-05-14T09:11:01.285Z,12.80
2019-05-14T09:13:31.810Z,12.80
2019-05-14T09:16:01.384Z,12.70
2019-05-14T09:18:30.940Z,12.70
2019-05-14T09:21:01.566Z,12.70
2019-05-14T09:23:31.120Z,12.70
2019-05-14T09:26:00.968Z,12.60
2019-05-14T09:28:30.841Z,12.50
2019-05-14T09:31:00.817Z,12.40
2019-05-14T09:33:30.597Z,12.50
2019-05-14T09:36:17.947Z,12.60
2019-05-14T09:38:42.139Z,12.70
2019-05-14T09:41:14.991Z,12.80
2019-05-14T09:43:41.208Z,12.90
2019-05-14T09:46:11.129Z,13.10
2019-05-14T09:48:40.686Z,13.20
2019-05-14T09:51:10.750Z,13.30
2019-05-14T09:53:40.328Z,13.40
2019-05-14T09:56:09.948Z,13.40
2019-05-14T09:58:39.590Z,13.40
2019-05-14T10:01:09.188Z,13.30
2019-05-14T10:03:39.312Z,13.20
2019-05-14T10:06:09.917Z,13.00
2019-05-14T10:08:40.014Z,12.90
2019-05-14T10:11:09.907Z,12.90
2019-05-14T10:13:39.593Z,13.00
2019-05-14T10:16:09.662Z,13.10
2019-05-14T10:18:39.341Z,13.30
2019-05-14T10:21:09.224Z,13.50
2019-05-14T10:23:39.181Z,13.70
2019-05-14T10:26:09.442Z,14.00
2019-05-14T10:28:44.785Z,14.10
2019-05-14T10:31:14.579Z,14.20
2019-05-14T10:33:44.410Z,14.40
2019-05-14T10:36:14.033Z,14.50
2019-05-14T10:38:44.027Z,14.70
2019-05-14T10:41:13.868Z,14.90
2019-05-14T10:43:43.453Z,14.90
2019-05-14T10:46:13.015Z,15.00
2019-05-14T10:48:42.573Z,15.10
2019-05-14T10:51:30.861Z,15.10
2019-05-14T10:54:00.447Z,14.90
2019-05-14T10:56:30.141Z,14.80
2019-05-14T10:59:00.040Z,14.80
2019-05-14T11:01:29.606Z,14.80
2019-05-14T11:04:06.040Z,15.00
2019-05-14T11:06:38.586Z,15.00
2019-05-14T11:09:09.159Z,15.00
2019-05-14T11:11:39.137Z,15.00
2019-05-14T11:14:09.013Z,15.00
2019-05-14T11:16:41.866Z,14.90
2019-05-14T11:19:11.480Z,14.80
2019-05-14T11:21:41.424Z,14.70
2019-05-14T11:24:11.358Z,14.70
2019-05-14T11:26:40.918Z,14.90
2019-05-14T11:29:11.166Z,15.00
2019-05-14T11:31:41.137Z,15.20
2019-05-14T11:34:10.889Z,15.30
2019-05-14T11:36:40.705Z,15.30
2019-05-14T11:39:10.331Z,15.10
2019-05-14T11:41:40.918Z,15.00
2019-05-14T11:44:10.464Z,15.00
2019-05-14T11:46:51.036Z,15.00
2019-05-14T11:52:04.291Z,14.80
2019-05-14T11:54:22.970Z,14.70
2019-05-14T11:56:51.980Z,14.70
2019-05-14T11:59:22.009Z,14.90
2019-05-14T12:01:54.841Z,15.20
2019-05-14T12:04:23.173Z,15.60
2019-05-14T12:06:53.289Z,15.70
2019-05-14T12:09:23.377Z,15.60
2019-05-14T12:11:53.308Z,15.30
2019-05-14T12:14:42.789Z,15.20
2019-05-14T12:17:12.599Z,15.30
2019-05-14T12:19:43.673Z,15.60
2019-05-14T12:22:14.063Z,15.70
2019-05-14T12:24:44.489Z,15.70
2019-05-14T12:27:14.641Z,15.60
2019-05-14T12:29:44.526Z,15.70
2019-05-14T12:32:14.225Z,15.90
2019-05-14T12:34:44.352Z,16.20
2019-05-14T12:37:13.921Z,16.10
2019-05-14T12:39:44.272Z,16.00
2019-05-14T12:42:14.188Z,16.00
2019-05-14T12:44:44.858Z,16.00
2019-05-14T12:47:14.735Z,15.80
2019-05-14T12:49:44.941Z,15.70
2019-05-14T12:52:24.627Z,15.60
2019-05-14T12:54:45.843Z,15.50
2019-05-14T12:57:15.676Z,15.30
2019-05-14T12:59:45.641Z,15.30
2019-05-14T13:02:18.808Z,15.40
2019-05-14T13:04:49.144Z,15.60
2019-05-14T13:07:19.274Z,15.90
2019-05-14T13:09:49.702Z,16.20
2019-05-14T13:12:20.277Z,16.50
2019-05-14T13:14:49.841Z,16.50
2019-05-14T13:17:28.132Z,16.30
2019-05-14T13:19:57.745Z,16.30
2019-05-14T13:22:39.256Z,16.50
2019-05-14T13:24:59.416Z,16.60
2019-05-14T13:27:30.985Z,16.60
2019-05-14T13:30:00.782Z,16.40
2019-05-14T13:32:30.586Z,16.20
2019-05-14T13:35:00.399Z,16.20
2019-05-14T13:37:29.949Z,16.30
2019-05-14T13:39:59.809Z,16.60
2019-05-14T13:42:29.635Z,16.80
2019-05-14T13:44:59.424Z,16.70
2019-05-14T13:47:29.256Z,16.30
2019-05-14T13:49:59.358Z,16.10
2019-05-14T13:52:29.400Z,15.70
2019-05-14T13:54:59.393Z,15.90
2019-05-14T13:57:29.326Z,16.10
2019-05-14T13:59:59.235Z,16.40
2019-05-14T14:02:31.372Z,16.50
2019-05-14T14:05:00.189Z,16.80
2019-05-14T14:07:29.990Z,17.00
2019-05-14T14:09:59.601Z,17.10
2019-05-14T14:12:32.397Z,17.00
2019-05-14T14:15:01.680Z,16.60
2019-05-14T14:17:31.593Z,16.40
2019-05-14T14:20:01.408Z,16.30
2019-05-14T14:22:31.301Z,16.20
2019-05-14T14:25:00.861Z,16.40
2019-05-14T14:27:30.768Z,16.70
2019-05-14T14:30:00.642Z,16.90
2019-05-14T14:32:30.435Z,16.80
2019-05-14T14:34:59.998Z,16.70
2019-05-14T14:37:29.614Z,16.70
2019-05-14T14:39:59.478Z,16.50
2019-05-14T14:42:33.075Z,16.30
2019-05-14T14:45:00.657Z,16.20
2019-05-14T14:47:31.214Z,16.00
2019-05-14T14:50:02.941Z,16.00
2019-05-14T14:52:42.548Z,16.20
2019-05-14T14:55:12.780Z,16.60
2019-05-14T14:57:45.854Z,17.10
2019-05-14T15:00:14.658Z,17.00
2019-05-14T15:02:44.222Z,16.70
2019-05-14T15:05:14.705Z,16.50
2019-05-14T15:07:44.684Z,16.30
2019-05-14T15:10:14.417Z,16.10
2019-05-14T15:12:43.993Z,16.00
2019-05-14T15:15:14.249Z,15.90
2019-05-14T15:17:43.816Z,15.70
2019-05-14T15:20:14.065Z,15.70
2019-05-14T15:22:43.878Z,15.70
2019-05-14T15:25:13.989Z,15.90
2019-05-14T15:27:44.204Z,16.20
2019-05-14T15:30:14.484Z,16.50
2019-05-14T15:32:44.449Z,16.80
2019-05-14T15:35:14.365Z,16.60
2019-05-14T15:37:43.916Z,16.40
2019-05-14T15:40:14.415Z,16.20
2019-05-14T15:42:44.334Z,16.00
2019-05-14T15:45:14.637Z,16.00
2019-05-14T15:47:44.217Z,16.00
2019-05-14T15:50:13.845Z,16.00
2019-05-14T15:52:44.079Z,15.90
2019-05-14T15:55:14.188Z,15.90
2019-05-14T15:57:43.742Z,15.80
2019-05-14T16:00:13.974Z,16.40
2019-05-14T16:02:43.549Z,16.90
2019-05-14T16:05:13.196Z,17.60
2019-05-14T16:07:43.042Z,17.40
2019-05-14T16:10:13.160Z,16.90
2019-05-14T16:12:42.725Z,17.10
2019-05-14T16:15:12.677Z,18.80
2019-05-14T16:18:00.249Z,21.00
2019-05-14T16:20:59.936Z,22.80
2019-05-14T16:23:29.553Z,24.20
2019-05-14T16:26:08.973Z,25.50
2019-05-14T16:28:39.483Z,26.40
2019-05-14T16:31:09.921Z,26.40
2019-05-14T16:33:55.471Z,26.10
2019-05-14T16:36:25.137Z,24.60
2019-05-14T16:39:04.635Z,23.20
2019-05-14T16:41:34.301Z,22.40
2019-05-14T16:44:04.225Z,22.60
2019-05-14T16:46:33.870Z,22.70
2019-05-14T16:49:09.986Z,24.10
2019-05-14T16:51:39.558Z,25.40
2019-05-14T16:54:09.109Z,27.10
2019-05-14T16:56:41.347Z,28.00
2019-05-14T16:59:10.193Z,29.10
2019-05-14T17:01:40.134Z,29.40
2019-05-14T17:04:09.705Z,30.10
2019-05-14T17:06:39.368Z,29.20
2019-05-14T17:09:39.445Z,27.50
2019-05-14T17:12:09.063Z,27.30
2019-05-14T17:14:38.733Z,26.50
2019-05-14T17:17:09.225Z,25.40
2019-05-14T17:19:39.028Z,25.80
2019-05-14T17:22:24.507Z,26.60
2019-05-14T17:24:43.763Z,27.60
2019-05-14T17:27:18.604Z,28.00
2019-05-14T17:29:55.186Z,28.00
2019-05-14T17:32:24.842Z,28.50
2019-05-14T17:34:54.614Z,29.20
2019-05-14T17:37:24.358Z,29.90
2019-05-14T17:39:54.286Z,30.20
2019-05-14T17:42:23.873Z,29.70
2019-05-14T17:44:54.254Z,28.30
2019-05-14T17:47:23.877Z,27.60
2019-05-14T17:49:53.821Z,27.50
2019-05-14T17:52:41.523Z,27.10
2019-05-14T17:55:12.241Z,26.50
2019-05-14T17:57:46.230Z,25.40
2019-05-14T18:00:11.193Z,24.60
2019-05-14T18:02:40.947Z,23.00
2019-05-14T18:05:10.813Z,22.40
2019-05-14T18:07:59.117Z,21.70
2019-05-14T18:10:28.487Z,21.30
2019-05-14T18:12:59.895Z,21.70
2019-05-14T18:15:29.925Z,21.50
2019-05-14T18:17:59.481Z,21.10
2019-05-14T18:20:29.267Z,20.30
2019-05-14T18:22:58.995Z,20.00
2019-05-14T18:25:30.913Z,20.00
2019-05-14T18:28:00.532Z,20.80
2019-05-14T18:30:30.269Z,21.20
2019-05-14T18:32:59.825Z,21.30
2019-05-14T18:35:29.707Z,20.50
2019-05-14T18:37:59.293Z,19.40
2019-05-14T18:40:28.919Z,18.60
2019-05-14T18:42:59.336Z,18.00
2019-05-14T18:45:29.579Z,17.50
2019-05-14T18:47:59.316Z,17.00
2019-05-14T18:50:29.103Z,16.80
2019-05-14T18:52:59.676Z,16.40
2019-05-14T18:55:29.782Z,15.90
2019-05-14T18:57:59.503Z,15.40
2019-05-14T19:00:29.677Z,15.20
2019-05-14T19:02:59.396Z,15.00
2019-05-14T19:05:29.624Z,14.80
2019-05-14T19:07:59.478Z,14.70
2019-05-14T19:10:29.309Z,14.50
2019-05-14T19:12:59.204Z,14.30
2019-05-14T19:15:28.998Z,14.10
2019-05-14T19:18:01.221Z,14.00
2019-05-14T19:20:30.167Z,13.80
2019-05-14T19:23:00.324Z,13.70
2019-05-14T19:25:30.270Z,13.60
2019-05-14T19:28:00.492Z,13.50
2019-05-14T19:30:30.418Z,13.40
2019-05-14T19:33:00.623Z,13.30
2019-05-14T19:35:30.538Z,13.20
2019-05-14T19:38:00.457Z,13.00
2019-05-14T19:40:30.446Z,13.00
2019-05-14T19:43:01.361Z,12.90
2019-05-14T19:45:31.241Z,12.70
2019-05-14T19:48:01.125Z,12.60
2019-05-14T19:50:30.967Z,12.50
2019-05-14T19:53:01.037Z,12.50
2019-05-14T19:55:30.578Z,12.30
2019-05-14T19:58:00.283Z,12.20
2019-05-14T20:00:31.037Z,12.20
2019-05-14T20:03:00.704Z,12.10
2019-05-14T20:05:30.357Z,12.10
2019-05-14T20:08:03.006Z,12.00
2019-05-14T20:10:32.561Z,12.00
2019-05-14T20:13:02.362Z,11.90
2019-05-14T20:15:32.034Z,11.90
2019-05-14T20:18:02.059Z,11.80
2019-05-14T20:20:32.255Z,11.70
2019-05-14T20:23:02.372Z,11.70
2019-05-14T20:25:31.997Z,11.60
2019-05-14T20:28:01.988Z,11.50
2019-05-14T20:30:31.607Z,11.40
2019-05-14T20:33:01.184Z,11.30
2019-05-14T20:35:34.820Z,11.30
2019-05-14T20:38:02.672Z,11.20
2019-05-14T20:40:32.588Z,11.20
2019-05-14T20:43:02.393Z,11.10
2019-05-14T20:45:32.518Z,11.00
2019-05-14T20:48:02.147Z,10.90
2019-05-14T20:50:32.029Z,10.80
2019-05-14T20:53:02.150Z,10.80
2019-05-14T20:55:31.702Z,10.70
2019-05-14T20:58:01.573Z,10.60
2019-05-14T21:00:31.291Z,10.60
2019-05-14T21:03:00.845Z,10.60
2019-05-14T21:05:30.387Z,10.50
2019-05-14T21:08:00.009Z,10.50
2019-05-14T21:10:29.563Z,10.40
2019-05-14T21:12:59.125Z,10.40
2019-05-14T21:15:28.998Z,10.40
2019-05-14T21:18:07.847Z,10.40
2019-05-14T21:20:39.363Z,10.30
2019-05-14T21:23:09.741Z,10.20
2019-05-14T21:25:39.394Z,10.20
2019-05-14T21:28:09.425Z,10.10
2019-05-14T21:30:39.153Z,10.10
2019-05-14T21:33:08.761Z,10.00
2019-05-14T21:35:38.977Z,10.00
2019-05-14T21:38:09.348Z,9.90
2019-05-14T21:40:39.228Z,9.90
2019-05-14T21:43:11.327Z,9.90
2019-05-14T21:45:40.480Z,9.80
2019-05-14T21:48:10.012Z,9.70
2019-05-14T21:50:39.576Z,9.70
2019-05-14T21:53:09.473Z,9.70
2019-05-14T21:55:42.072Z,9.60
2019-05-14T21:58:11.889Z,9.60
2019-05-14T22:00:48.500Z,9.60
2019-05-14T22:03:20.588Z,9.50
2019-05-14T22:05:51.714Z,9.50
2019-05-14T22:08:21.193Z,9.40
2019-05-14T22:10:50.938Z,9.40
2019-05-14T22:13:20.552Z,9.30
2019-05-14T22:15:50.101Z,9.30
2019-05-14T22:18:20.846Z,9.20
2019-05-14T22:20:50.755Z,9.10
2019-05-14T22:23:21.689Z,9.00
2019-05-14T22:25:51.263Z,9.00
2019-05-14T22:28:21.078Z,8.90
2019-05-14T22:30:50.643Z,8.90
2019-05-14T22:33:20.198Z,8.80
2019-05-14T22:35:49.828Z,8.70
2019-05-14T22:38:20.379Z,8.70
2019-05-14T22:40:50.104Z,8.60
2019-05-14T22:43:19.678Z,8.60
2019-05-14T22:45:49.277Z,8.50
2019-05-14T22:48:18.859Z,8.40
2019-05-14T22:50:49.096Z,8.40
2019-05-14T22:53:18.641Z,8.40
2019-05-14T22:56:02.364Z,8.40
2019-05-14T22:58:31.908Z,8.40
2019-05-14T23:01:14.457Z,8.30
2019-05-14T23:03:33.594Z,8.20
2019-05-14T23:06:03.139Z,8.20
2019-05-14T23:08:35.155Z,8.10
2019-05-14T23:11:05.105Z,8.00
2019-05-14T23:13:34.665Z,8.00
2019-05-14T23:16:04.327Z,7.90
2019-05-14T23:18:33.885Z,7.90
2019-05-14T23:21:03.503Z,7.80
2019-05-14T23:23:33.411Z,7.70
2019-05-14T23:26:02.983Z,7.70
2019-05-14T23:28:42.646Z,7.70
2019-05-14T23:31:04.180Z,7.60
2019-05-14T23:33:33.808Z,7.50
2019-05-14T23:36:03.521Z,7.50
2019-05-14T23:38:34.944Z,7.40
2019-05-14T23:41:04.916Z,7.30
2019-05-14T23:43:34.923Z,7.30
2019-05-14T23:46:04.846Z,7.30
2019-05-14T23:48:34.432Z,7.30
2019-05-14T23:51:04.349Z,7.30
2019-05-14T23:53:34.249Z,7.30
2019-05-14T23:56:03.815Z,7.20
2019-05-14T23:58:33.581Z,7.10
